createdAt,value
2018-08-22T00:13:58.257Z,61.12
2018-08-22T00:16:26.368Z,62.22
2018-08-22T00:18:54.515Z,62.80
2018-08-22T00:21:22.713Z,62.31
2018-08-22T00:23:50.834Z,62.58
2018-08-22T00:26:19.842Z,60.24
2018-08-22T00:28:47.971Z,61.24
2018-08-22T00:31:16.079Z,61.09
2018-08-22T00:33:44.183Z,61.87
2018-08-22T00:36:12.296Z,63.02
2018-08-22T00:38:40.466Z,62.21
2018-08-22T00:41:08.555Z,63.12
2018-08-22T00:43:37.043Z,63.70
2018-08-22T00:46:05.149Z,64.10
2018-08-22T00:48:33.827Z,64.79
2018-08-22T00:51:01.996Z,64.79
2018-08-22T00:53:30.106Z,64.47
2018-08-22T00:55:58.215Z,65.25
2018-08-22T00:58:26.322Z,65.57
2018-08-22T01:00:54.849Z,65.26
2018-08-22T01:03:23.267Z,65.26
2018-08-22T01:05:52.023Z,65.53
2018-08-22T01:08:20.156Z,64.41
2018-08-22T01:10:48.258Z,62.13
2018-08-22T01:13:16.387Z,63.28
2018-08-22T01:15:44.510Z,63.97
2018-08-22T01:18:12.614Z,64.83
2018-08-22T01:20:41.248Z,65.08
2018-08-22T01:23:09.402Z,65.32
2018-08-22T01:25:37.534Z,66.39
2018-08-22T01:28:05.754Z,66.98
2018-08-22T01:30:33.892Z,66.39
2018-08-22T01:33:02.032Z,67.39
2018-08-22T01:35:30.148Z,67.37
2018-08-22T01:37:58.338Z,67.34
2018-08-22T01:40:27.611Z,67.95
2018-08-22T01:42:55.771Z,67.87
2018-08-22T01:45:23.884Z,67.36
2018-08-22T01:47:52.105Z,68.11
2018-08-22T01:50:20.235Z,67.91
2018-08-22T01:52:48.424Z,68.66
2018-08-22T01:55:17.084Z,68.85
2018-08-22T01:57:45.291Z,68.20
2018-08-22T02:00:13.424Z,68.72
2018-08-22T02:02:41.996Z,68.41
2018-08-22T02:05:10.176Z,69.00
2018-08-22T02:07:38.295Z,68.43
2018-08-22T02:10:06.468Z,68.77
2018-08-22T02:12:35.547Z,68.52
2018-08-22T02:15:03.805Z,68.33
2018-08-22T02:17:31.960Z,68.15
2018-08-22T02:20:00.771Z,68.39
2018-08-22T02:22:29.098Z,69.38
2018-08-22T02:24:57.250Z,69.74
2018-08-22T02:27:25.395Z,69.37
2018-08-22T02:29:53.536Z,69.05
2018-08-22T02:32:21.660Z,69.80
2018-08-22T02:34:49.817Z,69.22
2018-08-22T02:37:19.181Z,69.36
2018-08-22T02:39:47.313Z,69.97
2018-08-22T02:42:15.999Z,70.39
2018-08-22T02:44:44.155Z,71.03
2018-08-22T02:47:12.284Z,70.19
2018-08-22T02:49:40.716Z,70.86
2018-08-22T02:52:08.864Z,70.67
2018-08-22T02:54:37.227Z,70.46
2018-08-22T02:57:05.687Z,70.90
2018-08-22T02:59:34.491Z,70.67
2018-08-22T03:02:03.729Z,70.56
2018-08-22T03:04:32.595Z,70.37
2018-08-22T03:07:00.989Z,70.43
2018-08-22T03:09:29.167Z,71.26
2018-08-22T03:11:58.181Z,69.82
2018-08-22T03:14:27.070Z,71.17
2018-08-22T03:16:55.208Z,71.44
2018-08-22T03:19:23.496Z,71.66
2018-08-22T03:21:52.580Z,71.25
2018-08-22T03:24:20.715Z,71.79
2018-08-22T03:32:36.400Z,71.92
2018-08-22T03:35:05.989Z,73.12
2018-08-22T03:37:36.056Z,71.64
2018-08-22T03:40:04.400Z,71.78
2018-08-22T03:42:37.239Z,71.93
2018-08-22T03:45:05.392Z,72.28
2018-08-22T03:47:33.832Z,71.34
2018-08-22T03:52:54.860Z,72.28
2018-08-22T03:55:23.011Z,72.52
2018-08-22T04:03:35.801Z,72.79
2018-08-22T04:06:04.076Z,72.54
2018-08-22T04:08:33.089Z,73.59
2018-08-22T04:11:01.242Z,73.42
2018-08-22T04:13:29.537Z,73.20
2018-08-22T04:15:58.027Z,73.31
2018-08-22T04:18:26.302Z,73.57
2018-08-22T04:20:54.769Z,73.88
2018-08-22T04:23:23.004Z,74.59
2018-08-22T04:25:51.971Z,74.02
2018-08-22T04:28:20.105Z,74.36
2018-08-22T04:30:48.469Z,74.39
2018-08-22T04:33:16.891Z,73.54
2018-08-22T04:35:45.812Z,73.68
2018-08-22T04:38:13.932Z,73.61
2018-08-22T04:43:44.795Z,73.58
2018-08-22T04:46:13.220Z,74.19
2018-08-22T04:48:41.657Z,73.69
2018-08-22T04:51:09.912Z,74.33
2018-08-22T04:53:38.369Z,74.21
2018-08-22T04:56:07.311Z,73.20
2018-08-22T05:04:41.247Z,73.23
2018-08-22T05:28:28.833Z,73.46
2018-08-22T05:30:57.033Z,72.87
2018-08-22T05:33:25.272Z,72.76
2018-08-22T05:35:53.464Z,72.60
2018-08-22T05:38:21.799Z,72.68
2018-08-22T05:40:50.901Z,71.87
2018-08-22T05:43:19.378Z,72.68
2018-08-22T05:45:47.692Z,71.66
2018-08-22T05:48:16.699Z,71.56
2018-08-22T05:50:44.945Z,71.57
2018-08-22T05:53:13.098Z,71.33
2018-08-22T05:55:41.375Z,70.83
2018-08-22T05:58:09.556Z,69.81
2018-08-22T06:00:37.880Z,68.62
2018-08-22T06:03:07.059Z,67.57
2018-08-22T06:05:35.522Z,67.41
2018-08-22T06:08:03.648Z,66.02
2018-08-22T06:10:32.028Z,62.86
2018-08-22T06:13:00.578Z,61.38
2018-08-22T06:15:28.925Z,61.09
2018-08-22T06:17:57.433Z,60.73
2018-08-22T06:20:25.867Z,57.87
2018-08-22T06:22:54.126Z,58.18
2018-08-22T06:25:22.284Z,58.49
2018-08-22T06:27:50.701Z,58.53
2018-08-22T06:30:18.805Z,58.56
2018-08-22T06:32:46.972Z,59.73
2018-08-22T06:35:15.473Z,60.67
2018-08-22T06:37:43.859Z,60.91
2018-08-22T06:40:12.465Z,61.52
2018-08-22T06:42:41.509Z,60.78
2018-08-22T06:45:10.604Z,60.13
2018-08-22T06:47:38.791Z,60.57
2018-08-22T06:50:07.002Z,60.28
2018-08-22T06:52:35.513Z,60.34
2018-08-22T06:55:04.049Z,59.17
2018-08-22T06:57:32.734Z,59.03
2018-08-22T07:00:01.386Z,58.07
2018-08-22T07:02:29.596Z,57.20
2018-08-22T07:04:57.834Z,55.68
2018-08-22T07:07:25.963Z,57.28
2018-08-22T07:09:54.126Z,56.19
2018-08-22T07:12:22.308Z,54.31
2018-08-22T07:14:50.928Z,53.70
2018-08-22T07:17:19.075Z,53.45
2018-08-22T07:19:47.240Z,52.22
2018-08-22T07:22:15.881Z,52.35
2018-08-22T07:24:44.001Z,52.17
2018-08-22T07:27:12.791Z,52.81
2018-08-22T07:29:41.814Z,53.13
2018-08-22T07:32:10.031Z,51.87
2018-08-22T07:34:38.416Z,52.06
2018-08-22T07:37:06.693Z,51.11
2018-08-22T07:39:35.513Z,51.76
2018-08-22T07:42:03.657Z,50.38
2018-08-22T07:44:31.781Z,50.64
2018-08-22T07:46:59.955Z,51.56
2018-08-22T07:49:28.067Z,52.28
2018-08-22T07:51:56.256Z,51.81
2018-08-22T07:54:29.063Z,51.37
2018-08-22T07:56:57.297Z,51.19
2018-08-22T07:59:25.439Z,51.16
2018-08-22T08:01:54.515Z,50.04
2018-08-22T08:04:23.107Z,49.82
2018-08-22T08:06:51.364Z,49.80
2018-08-22T08:09:19.493Z,49.75
2018-08-22T08:11:47.695Z,50.67
2018-08-22T08:14:15.857Z,49.50
2018-08-22T08:16:44.550Z,48.50
2018-08-22T08:19:12.990Z,48.35
2018-08-22T08:21:41.226Z,48.09
2018-08-22T08:24:09.423Z,48.26
2018-08-22T08:26:37.601Z,47.80
2018-08-22T08:29:05.909Z,47.58
2018-08-22T08:31:34.160Z,46.58
2018-08-22T08:34:02.320Z,45.74
2018-08-22T08:36:30.764Z,46.45
2018-08-22T08:38:59.152Z,45.93
2018-08-22T08:41:27.640Z,46.11
2018-08-22T08:43:55.718Z,45.57
2018-08-22T08:46:24.775Z,44.80
2018-08-22T08:48:52.909Z,44.35
2018-08-22T08:51:21.596Z,44.86
2018-08-22T08:53:49.761Z,43.59
2018-08-22T08:56:17.946Z,44.07
2018-08-22T08:58:46.399Z,43.18
2018-08-22T09:01:14.852Z,41.92
2018-08-22T09:03:43.125Z,41.52
2018-08-22T09:06:11.717Z,41.28
2018-08-22T09:08:39.831Z,41.93
2018-08-22T09:11:08.645Z,41.41
2018-08-22T09:13:40.495Z,41.47
2018-08-22T09:16:08.799Z,41.09
2018-08-22T09:18:36.930Z,41.47
2018-08-22T09:21:05.481Z,43.13
2018-08-22T09:23:33.843Z,40.71
2018-08-22T09:26:02.053Z,40.11
2018-08-22T09:28:30.248Z,41.00
2018-08-22T09:30:58.405Z,41.20
2018-08-22T09:33:27.641Z,39.71
2018-08-22T09:35:56.832Z,38.67
2018-08-22T09:38:24.973Z,39.60
2018-08-22T09:40:53.072Z,39.32
2018-08-22T09:43:21.266Z,38.95
2018-08-22T09:45:49.328Z,38.45
2018-08-22T09:48:17.494Z,38.76
2018-08-22T09:50:46.621Z,38.66
2018-08-22T09:53:15.187Z,38.72
2018-08-22T09:55:43.427Z,37.98
2018-08-22T09:58:11.679Z,38.19
2018-08-22T10:00:45.869Z,38.02
2018-08-22T10:03:14.005Z,37.50
2018-08-22T10:05:42.901Z,36.72
2018-08-22T10:08:11.145Z,37.53
2018-08-22T10:10:39.516Z,37.23
2018-08-22T10:13:07.658Z,36.86
2018-08-22T10:15:35.783Z,37.11
2018-08-22T10:18:04.132Z,38.35
2018-08-22T10:20:32.225Z,36.33
2018-08-22T10:23:00.576Z,36.55
2018-08-22T10:25:28.704Z,36.02
2018-08-22T10:27:56.854Z,35.93
2018-08-22T10:30:25.165Z,36.05
2018-08-22T10:32:53.368Z,35.59
2018-08-22T10:35:21.550Z,37.11
2018-08-22T10:37:49.739Z,37.69
2018-08-22T10:40:17.875Z,35.72
2018-08-22T10:42:46.005Z,34.83
2018-08-22T10:45:14.132Z,34.94
2018-08-22T10:47:42.397Z,36.20
2018-08-22T10:50:10.777Z,35.92
2018-08-22T10:52:38.915Z,34.76
2018-08-22T10:55:07.095Z,35.75
2018-08-22T10:57:35.198Z,36.15
2018-08-22T11:00:03.349Z,36.34
2018-08-22T11:02:31.442Z,35.49
2018-08-22T11:04:59.574Z,35.83
2018-08-22T11:07:27.949Z,34.13
2018-08-22T11:09:56.184Z,33.92
2018-08-22T11:12:24.267Z,33.89
2018-08-22T11:14:52.379Z,33.51
2018-08-22T11:17:20.492Z,32.98
2018-08-22T11:19:48.585Z,33.64
2018-08-22T11:22:28.504Z,32.84
2018-08-22T11:25:07.944Z,33.69
2018-08-22T11:27:47.486Z,33.19
2018-08-22T11:30:27.070Z,32.72
2018-08-22T11:33:06.556Z,33.52
2018-08-22T11:35:33.835Z,33.36
2018-08-22T11:38:02.126Z,33.43
2018-08-22T11:40:31.806Z,34.08
2018-08-22T11:42:59.967Z,32.92
2018-08-22T11:45:28.072Z,33.82
2018-08-22T11:47:56.496Z,32.36
2018-08-22T11:50:24.641Z,32.07
2018-08-22T11:52:52.799Z,31.86
2018-08-22T11:55:21.172Z,32.43
2018-08-22T11:57:49.549Z,32.91
2018-08-22T12:00:17.699Z,34.18
2018-08-22T12:02:46.825Z,33.29
2018-08-22T12:05:15.796Z,32.77
2018-08-22T12:07:43.898Z,32.02
2018-08-22T12:10:12.054Z,32.76
2018-08-22T12:12:40.183Z,31.87
2018-08-22T19:24:07.594Z,48.13
2018-08-22T19:26:36.003Z,49.54
2018-08-22T19:29:05.398Z,49.68
2018-08-22T19:31:33.588Z,49.62
2018-08-22T19:34:02.731Z,50.46
2018-08-22T19:36:31.465Z,50.16
2018-08-22T19:39:00.420Z,50.17
2018-08-22T19:41:33.658Z,50.84
2018-08-22T19:44:01.838Z,49.77
2018-08-22T19:46:30.567Z,50.39
2018-08-22T19:49:00.249Z,50.56
2018-08-22T19:51:29.247Z,50.90
2018-08-22T19:54:04.038Z,50.50
2018-08-22T19:56:32.434Z,51.47
2018-08-22T19:59:01.518Z,51.71
2018-08-22T20:01:30.980Z,51.78
2018-08-22T20:03:59.126Z,52.13
2018-08-22T20:06:27.480Z,52.40
2018-08-22T20:08:57.086Z,52.70
2018-08-22T20:11:25.468Z,52.46
2018-08-22T20:13:58.787Z,53.37
2018-08-22T20:16:31.029Z,53.81
2018-08-22T20:19:00.322Z,54.54
2018-08-22T20:21:35.591Z,54.63
2018-08-22T20:24:05.212Z,55.34
2018-08-22T20:26:33.979Z,55.37
2018-08-22T20:29:03.179Z,55.45
2018-08-22T20:31:32.351Z,55.56
2018-08-22T20:34:03.431Z,55.11
2018-08-22T20:36:32.334Z,55.98
2018-08-22T20:39:04.001Z,56.03
2018-08-22T20:41:32.797Z,55.92
2018-08-22T20:44:01.300Z,56.75
2018-08-22T20:46:29.407Z,57.89
2018-08-22T20:48:57.537Z,58.56
2018-08-22T20:51:25.633Z,59.04
2018-08-22T20:54:01.987Z,59.01
2018-08-22T20:56:31.213Z,58.81
2018-08-22T20:58:59.339Z,59.93
2018-08-22T21:01:27.561Z,60.28
2018-08-22T21:03:55.817Z,60.35
2018-08-22T21:06:24.101Z,60.14
2018-08-22T21:08:52.206Z,61.04
2018-08-22T21:11:20.381Z,60.16
2018-08-22T21:13:48.695Z,59.56
2018-08-22T21:16:16.787Z,59.97
2018-08-22T21:18:44.900Z,60.08
2018-08-22T21:21:17.442Z,60.95
2018-08-22T21:23:45.572Z,61.60
2018-08-22T21:26:20.169Z,61.31
2018-08-22T21:28:49.165Z,61.44
2018-08-22T21:31:17.568Z,60.44
2018-08-22T21:33:45.696Z,61.66
2018-08-22T21:36:14.335Z,61.10
2018-08-22T21:38:42.564Z,61.21
2018-08-22T21:41:10.670Z,61.93
2018-08-22T21:43:38.807Z,61.78
2018-08-22T21:46:06.929Z,61.76
2018-08-22T21:48:35.073Z,62.61
2018-08-22T21:51:03.194Z,62.52
2018-08-22T21:53:31.320Z,62.40
2018-08-22T21:55:59.435Z,61.98
2018-08-22T21:58:27.560Z,62.00
2018-08-22T22:02:44.807Z,62.87
2018-08-22T22:05:13.388Z,62.12
2018-08-22T22:07:41.861Z,62.76
2018-08-22T22:10:11.312Z,63.50
2018-08-22T22:12:40.041Z,63.68
2018-08-22T22:15:10.038Z,63.80
2018-08-22T22:17:38.145Z,64.74
2018-08-22T22:20:06.292Z,64.24
2018-08-22T22:22:35.449Z,64.69
2018-08-22T22:25:04.663Z,64.67
2018-08-22T22:27:33.004Z,64.54
2018-08-22T22:30:03.318Z,63.97
2018-08-22T22:32:32.124Z,63.84
2018-08-22T22:35:00.291Z,63.60
2018-08-22T22:37:29.325Z,63.11
2018-08-22T22:39:58.455Z,63.80
2018-08-22T22:42:28.296Z,64.85
2018-08-22T22:44:57.853Z,65.84
2018-08-22T22:47:27.512Z,65.91
2018-08-22T22:49:56.309Z,66.09
2018-08-22T22:52:27.556Z,67.01
2018-08-22T22:54:56.656Z,66.82
2018-08-22T22:57:24.896Z,66.78
2018-08-22T22:59:54.500Z,67.62
2018-08-22T23:02:24.550Z,67.84
2018-08-22T23:05:00.096Z,67.15
2018-08-22T23:07:30.012Z,67.05
2018-08-22T23:09:59.330Z,66.49
2018-08-22T23:12:37.929Z,66.52
2018-08-22T23:15:07.349Z,66.47
2018-08-22T23:17:35.467Z,66.39
2018-08-22T23:20:14.220Z,67.14
2018-08-22T23:22:42.306Z,67.90
2018-08-22T23:25:11.215Z,68.62
2018-08-22T23:27:40.653Z,68.22
2018-08-22T23:30:08.979Z,68.63
2018-08-22T23:32:38.686Z,68.29
2018-08-22T23:35:21.304Z,69.38
2018-08-22T23:37:52.958Z,68.45
2018-08-22T23:40:22.483Z,68.11
2018-08-22T23:42:50.643Z,68.32
2018-08-22T23:45:18.799Z,69.11
2018-08-22T23:47:46.909Z,69.50
2018-08-22T23:50:15.063Z,68.97
2018-08-22T23:52:50.520Z,68.83
2018-08-22T23:55:20.128Z,68.79
2018-08-22T23:57:53.111Z,69.34
